sensor_id;sensor_type;location;lat;lon;timestamp;P1;durP1;ratioP1;P2;durP2;ratioP2
68126;SDS011;54931;52.098;21.006;2023-06-26T00:00:35;15.90;;;8.70;;
68126;SDS011;54931;52.098;21.006;2023-06-26T00:03:27;14.90;;;8.40;;
68126;SDS011;54931;52.098;21.006;2023-06-26T00:05:56;14.20;;;7.70;;
68126;SDS011;54931;52.098;21.006;2023-06-26T00:08:28;15.50;;;8.70;;
68126;SDS011;54931;52.098;21.006;2023-06-26T00:10:56;15.10;;;7.90;;
68126;SDS011;54931;52.098;21.006;2023-06-26T00:13:24;14.60;;;7.60;;
68126;SDS011;54931;52.098;21.006;2023-06-26T00:15:51;14.80;;;8.10;;
68126;SDS011;54931;52.098;21.006;2023-06-26T00:18:19;13.20;;;7.90;;
68126;SDS011;54931;52.098;21.006;2023-06-26T00:20:47;13.70;;;7.80;;
68126;SDS011;54931;52.098;21.006;2023-06-26T00:23:16;14.30;;;8.20;;
68126;SDS011;54931;52.098;21.006;2023-06-26T00:25:44;15.90;;;7.90;;
68126;SDS011;54931;52.098;21.006;2023-06-26T00:28:12;18.60;;;8.30;;
68126;SDS011;54931;52.098;21.006;2023-06-26T00:30:39;13.50;;;8.50;;
68126;SDS011;54931;52.098;21.006;2023-06-26T00:33:07;14.20;;;8.50;;
68126;SDS011;54931;52.098;21.006;2023-06-26T00:35:34;14.50;;;8.10;;
68126;SDS011;54931;52.098;21.006;2023-06-26T00:38:02;13.20;;;7.90;;
68126;SDS011;54931;52.098;21.006;2023-06-26T00:40:30;13.70;;;8.00;;
68126;SDS011;54931;52.098;21.006;2023-06-26T00:42:57;23.10;;;8.20;;
68126;SDS011;54931;52.098;21.006;2023-06-26T00:45:25;15.30;;;8.60;;
68126;SDS011;54931;52.098;21.006;2023-06-26T00:47:53;15.30;;;8.50;;
68126;SDS011;54931;52.098;21.006;2023-06-26T00:50:21;15.10;;;8.00;;
68126;SDS011;54931;52.098;21.006;2023-06-26T00:52:48;15.90;;;8.20;;
68126;SDS011;54931;52.098;21.006;2023-06-26T00:55:16;13.70;;;8.30;;
68126;SDS011;54931;52.098;21.006;2023-06-26T00:57:45;17.20;;;7.60;;
68126;SDS011;54931;52.098;21.006;2023-06-26T01:00:14;15.50;;;7.70;;
68126;SDS011;54931;52.098;21.006;2023-06-26T01:02:42;16.20;;;8.20;;
68126;SDS011;54931;52.098;21.006;2023-06-26T01:05:10;14.70;;;7.90;;
68126;SDS011;54931;52.098;21.006;2023-06-26T01:07:40;13.40;;;7.40;;
68126;SDS011;54931;52.098;21.006;2023-06-26T01:10:08;13.60;;;8.00;;
68126;SDS011;54931;52.098;21.006;2023-06-26T01:12:36;16.50;;;7.90;;
68126;SDS011;54931;52.098;21.006;2023-06-26T01:15:06;16.50;;;8.50;;
68126;SDS011;54931;52.098;21.006;2023-06-26T01:17:37;14.20;;;8.50;;
68126;SDS011;54931;52.098;21.006;2023-06-26T01:20:06;15.90;;;7.70;;
68126;SDS011;54931;52.098;21.006;2023-06-26T01:28:06;15.20;;;8.10;;
68126;SDS011;54931;52.098;21.006;2023-06-26T01:30:41;17.80;;;9.50;;
68126;SDS011;54931;52.098;21.006;2023-06-26T01:33:13;15.80;;;8.50;;
68126;SDS011;54931;52.098;21.006;2023-06-26T01:35:43;15.50;;;8.70;;
68126;SDS011;54931;52.098;21.006;2023-06-26T01:38:14;17.10;;;9.50;;
68126;SDS011;54931;52.098;21.006;2023-06-26T01:45:55;15.20;;;8.30;;
68126;SDS011;54931;52.098;21.006;2023-06-26T01:48:45;14.40;;;8.20;;
68126;SDS011;54931;52.098;21.006;2023-06-26T01:51:29;15.90;;;8.60;;
68126;SDS011;54931;52.098;21.006;2023-06-26T01:54:00;15.50;;;8.40;;
68126;SDS011;54931;52.098;21.006;2023-06-26T01:56:29;14.90;;;8.00;;
68126;SDS011;54931;52.098;21.006;2023-06-26T01:58:57;15.20;;;8.50;;
68126;SDS011;54931;52.098;21.006;2023-06-26T02:01:26;14.30;;;8.60;;
68126;SDS011;54931;52.098;21.006;2023-06-26T02:03:54;16.90;;;8.60;;
68126;SDS011;54931;52.098;21.006;2023-06-26T02:06:21;13.50;;;8.20;;
68126;SDS011;54931;52.098;21.006;2023-06-26T02:08:49;14.80;;;8.70;;
68126;SDS011;54931;52.098;21.006;2023-06-26T02:11:16;15.80;;;9.10;;
68126;SDS011;54931;52.098;21.006;2023-06-26T02:13:44;16.50;;;9.00;;
68126;SDS011;54931;52.098;21.006;2023-06-26T02:16:12;15.50;;;8.70;;
68126;SDS011;54931;52.098;21.006;2023-06-26T02:18:40;18.60;;;9.90;;
68126;SDS011;54931;52.098;21.006;2023-06-26T02:21:09;17.40;;;8.80;;
68126;SDS011;54931;52.098;21.006;2023-06-26T02:23:36;17.00;;;9.00;;
68126;SDS011;54931;52.098;21.006;2023-06-26T02:26:05;19.40;;;9.50;;
68126;SDS011;54931;52.098;21.006;2023-06-26T02:28:32;15.50;;;8.20;;
68126;SDS011;54931;52.098;21.006;2023-06-26T02:31:01;17.30;;;8.70;;
68126;SDS011;54931;52.098;21.006;2023-06-26T02:33:29;16.60;;;9.20;;
68126;SDS011;54931;52.098;21.006;2023-06-26T02:35:57;14.90;;;8.60;;
68126;SDS011;54931;52.098;21.006;2023-06-26T02:38:24;18.80;;;8.70;;
68126;SDS011;54931;52.098;21.006;2023-06-26T02:40:52;18.40;;;9.20;;
68126;SDS011;54931;52.098;21.006;2023-06-26T02:43:19;21.70;;;8.60;;
68126;SDS011;54931;52.098;21.006;2023-06-26T02:45:46;16.90;;;8.50;;
68126;SDS011;54931;52.098;21.006;2023-06-26T02:48:14;14.30;;;8.00;;
68126;SDS011;54931;52.098;21.006;2023-06-26T02:50:42;15.50;;;8.40;;
68126;SDS011;54931;52.098;21.006;2023-06-26T02:53:13;15.70;;;8.40;;
68126;SDS011;54931;52.098;21.006;2023-06-26T02:55:40;14.80;;;8.20;;
68126;SDS011;54931;52.098;21.006;2023-06-26T02:58:07;17.60;;;9.10;;
68126;SDS011;54931;52.098;21.006;2023-06-26T03:00:35;14.70;;;8.30;;
68126;SDS011;54931;52.098;21.006;2023-06-26T03:03:09;17.20;;;9.00;;
68126;SDS011;54931;52.098;21.006;2023-06-26T03:05:36;14.70;;;8.40;;
68126;SDS011;54931;52.098;21.006;2023-06-26T03:08:04;16.60;;;9.40;;
68126;SDS011;54931;52.098;21.006;2023-06-26T03:10:31;18.00;;;9.90;;
68126;SDS011;54931;52.098;21.006;2023-06-26T03:12:59;20.10;;;10.30;;
68126;SDS011;54931;52.098;21.006;2023-06-26T03:15:26;16.60;;;9.30;;
68126;SDS011;54931;52.098;21.006;2023-06-26T03:17:55;21.40;;;10.40;;
68126;SDS011;54931;52.098;21.006;2023-06-26T03:20:22;14.90;;;8.80;;
68126;SDS011;54931;52.098;21.006;2023-06-26T03:22:50;16.80;;;9.40;;
68126;SDS011;54931;52.098;21.006;2023-06-26T03:25:17;17.30;;;9.30;;
68126;SDS011;54931;52.098;21.006;2023-06-26T03:27:45;18.00;;;9.90;;
68126;SDS011;54931;52.098;21.006;2023-06-26T03:30:13;17.40;;;9.10;;
68126;SDS011;54931;52.098;21.006;2023-06-26T03:32:41;18.70;;;8.50;;
68126;SDS011;54931;52.098;21.006;2023-06-26T03:35:09;17.00;;;8.30;;
68126;SDS011;54931;52.098;21.006;2023-06-26T03:37:37;17.80;;;8.20;;
68126;SDS011;54931;52.098;21.006;2023-06-26T03:40:05;13.60;;;7.60;;
68126;SDS011;54931;52.098;21.006;2023-06-26T03:42:34;15.60;;;8.00;;
68126;SDS011;54931;52.098;21.006;2023-06-26T03:45:02;13.40;;;7.60;;
68126;SDS011;54931;52.098;21.006;2023-06-26T03:47:31;14.70;;;8.60;;
68126;SDS011;54931;52.098;21.006;2023-06-26T03:49:59;14.50;;;8.30;;
68126;SDS011;54931;52.098;21.006;2023-06-26T03:52:28;12.50;;;7.90;;
68126;SDS011;54931;52.098;21.006;2023-06-26T03:54:58;15.70;;;7.70;;
68126;SDS011;54931;52.098;21.006;2023-06-26T03:57:25;16.20;;;8.90;;
68126;SDS011;54931;52.098;21.006;2023-06-26T03:59:53;17.20;;;8.80;;
68126;SDS011;54931;52.098;21.006;2023-06-26T04:02:20;15.90;;;8.40;;
68126;SDS011;54931;52.098;21.006;2023-06-26T04:04:48;15.40;;;8.60;;
68126;SDS011;54931;52.098;21.006;2023-06-26T04:07:16;18.70;;;9.00;;
68126;SDS011;54931;52.098;21.006;2023-06-26T04:09:43;18.10;;;8.40;;
68126;SDS011;54931;52.098;21.006;2023-06-26T04:12:11;13.10;;;8.00;;
68126;SDS011;54931;52.098;21.006;2023-06-26T04:14:39;17.90;;;8.80;;
68126;SDS011;54931;52.098;21.006;2023-06-26T04:17:06;15.60;;;8.60;;
68126;SDS011;54931;52.098;21.006;2023-06-26T04:19:35;14.40;;;8.20;;
68126;SDS011;54931;52.098;21.006;2023-06-26T04:22:03;12.20;;;7.70;;
68126;SDS011;54931;52.098;21.006;2023-06-26T04:26:58;11.70;;;7.60;;
68126;SDS011;54931;52.098;21.006;2023-06-26T04:29:27;15.50;;;8.80;;
68126;SDS011;54931;52.098;21.006;2023-06-26T04:31:55;17.50;;;8.90;;
68126;SDS011;54931;52.098;21.006;2023-06-26T04:34:26;18.40;;;8.50;;
68126;SDS011;54931;52.098;21.006;2023-06-26T04:36:55;17.10;;;8.80;;
68126;SDS011;54931;52.098;21.006;2023-06-26T04:39:22;14.90;;;8.10;;
68126;SDS011;54931;52.098;21.006;2023-06-26T04:41:50;13.60;;;8.50;;
68126;SDS011;54931;52.098;21.006;2023-06-26T04:44:18;14.60;;;8.10;;
68126;SDS011;54931;52.098;21.006;2023-06-26T04:46:46;13.00;;;8.20;;
68126;SDS011;54931;52.098;21.006;2023-06-26T04:49:13;11.90;;;8.40;;
68126;SDS011;54931;52.098;21.006;2023-06-26T04:51:45;10.60;;;7.60;;
68126;SDS011;54931;52.098;21.006;2023-06-26T04:54:13;13.30;;;8.50;;
68126;SDS011;54931;52.098;21.006;2023-06-26T04:56:41;13.50;;;7.70;;
68126;SDS011;54931;52.098;21.006;2023-06-26T04:59:10;15.10;;;8.30;;
68126;SDS011;54931;52.098;21.006;2023-06-26T05:01:41;14.50;;;8.20;;
68126;SDS011;54931;52.098;21.006;2023-06-26T05:04:10;13.90;;;8.30;;
68126;SDS011;54931;52.098;21.006;2023-06-26T05:09:05;14.50;;;8.40;;
68126;SDS011;54931;52.098;21.006;2023-06-26T05:11:33;15.70;;;8.00;;
68126;SDS011;54931;52.098;21.006;2023-06-26T05:14:01;15.50;;;8.30;;
68126;SDS011;54931;52.098;21.006;2023-06-26T05:16:29;13.30;;;7.30;;
68126;SDS011;54931;52.098;21.006;2023-06-26T05:18:56;16.50;;;8.00;;
68126;SDS011;54931;52.098;21.006;2023-06-26T05:23:56;19.40;;;7.80;;
68126;SDS011;54931;52.098;21.006;2023-06-26T05:26:26;20.00;;;7.60;;
68126;SDS011;54931;52.098;21.006;2023-06-26T05:28:55;13.10;;;7.90;;
68126;SDS011;54931;52.098;21.006;2023-06-26T05:31:23;14.30;;;8.00;;
68126;SDS011;54931;52.098;21.006;2023-06-26T05:33:53;12.30;;;8.00;;
68126;SDS011;54931;52.098;21.006;2023-06-26T05:36:23;10.10;;;7.70;;
68126;SDS011;54931;52.098;21.006;2023-06-26T05:38:53;10.40;;;7.20;;
68126;SDS011;54931;52.098;21.006;2023-06-26T05:41:23;8.40;;;6.30;;
68126;SDS011;54931;52.098;21.006;2023-06-26T05:43:51;11.60;;;7.10;;
68126;SDS011;54931;52.098;21.006;2023-06-26T05:46:21;16.30;;;7.30;;
68126;SDS011;54931;52.098;21.006;2023-06-26T05:48:49;13.70;;;7.30;;
68126;SDS011;54931;52.098;21.006;2023-06-26T05:51:17;12.00;;;7.00;;
68126;SDS011;54931;52.098;21.006;2023-06-26T05:53:45;15.30;;;7.00;;
68126;SDS011;54931;52.098;21.006;2023-06-26T05:56:14;12.20;;;6.40;;
68126;SDS011;54931;52.098;21.006;2023-06-26T05:58:42;13.60;;;6.00;;
68126;SDS011;54931;52.098;21.006;2023-06-26T06:01:11;13.80;;;6.40;;
68126;SDS011;54931;52.098;21.006;2023-06-26T06:03:39;9.80;;;6.40;;
68126;SDS011;54931;52.098;21.006;2023-06-26T06:06:07;9.50;;;6.40;;
68126;SDS011;54931;52.098;21.006;2023-06-26T06:08:35;11.90;;;7.00;;
68126;SDS011;54931;52.098;21.006;2023-06-26T06:11:02;15.80;;;6.70;;
68126;SDS011;54931;52.098;21.006;2023-06-26T06:13:29;10.40;;;6.20;;
68126;SDS011;54931;52.098;21.006;2023-06-26T06:15:57;18.90;;;6.90;;
68126;SDS011;54931;52.098;21.006;2023-06-26T06:18:25;11.60;;;6.40;;
68126;SDS011;54931;52.098;21.006;2023-06-26T06:20:53;11.50;;;6.30;;
68126;SDS011;54931;52.098;21.006;2023-06-26T06:23:20;13.10;;;6.00;;
68126;SDS011;54931;52.098;21.006;2023-06-26T06:25:49;13.40;;;5.50;;
68126;SDS011;54931;52.098;21.006;2023-06-26T06:28:16;12.30;;;6.00;;
68126;SDS011;54931;52.098;21.006;2023-06-26T06:30:44;8.50;;;5.90;;
68126;SDS011;54931;52.098;21.006;2023-06-26T06:33:14;12.20;;;6.20;;
68126;SDS011;54931;52.098;21.006;2023-06-26T06:35:41;11.90;;;5.50;;
68126;SDS011;54931;52.098;21.006;2023-06-26T06:38:09;8.10;;;5.10;;
68126;SDS011;54931;52.098;21.006;2023-06-26T06:40:37;8.80;;;5.80;;
68126;SDS011;54931;52.098;21.006;2023-06-26T06:43:05;10.00;;;5.80;;
68126;SDS011;54931;52.098;21.006;2023-06-26T06:45:32;10.30;;;5.50;;
68126;SDS011;54931;52.098;21.006;2023-06-26T06:48:00;10.80;;;5.50;;
68126;SDS011;54931;52.098;21.006;2023-06-26T06:50:28;12.60;;;5.40;;
68126;SDS011;54931;52.098;21.006;2023-06-26T06:52:56;11.80;;;5.80;;
68126;SDS011;54931;52.098;21.006;2023-06-26T06:55:24;11.90;;;5.20;;
68126;SDS011;54931;52.098;21.006;2023-06-26T06:57:53;10.00;;;5.00;;
68126;SDS011;54931;52.098;21.006;2023-06-26T07:00:20;10.50;;;5.20;;
68126;SDS011;54931;52.098;21.006;2023-06-26T07:02:48;7.80;;;4.50;;
68126;SDS011;54931;52.098;21.006;2023-06-26T07:05:16;7.90;;;4.50;;
68126;SDS011;54931;52.098;21.006;2023-06-26T07:07:44;5.40;;;3.80;;
68126;SDS011;54931;52.098;21.006;2023-06-26T07:10:13;6.90;;;3.90;;
68126;SDS011;54931;52.098;21.006;2023-06-26T07:12:41;4.90;;;4.10;;
68126;SDS011;54931;52.098;21.006;2023-06-26T07:15:09;6.30;;;4.60;;
68126;SDS011;54931;52.098;21.006;2023-06-26T07:17:37;6.50;;;4.00;;
68126;SDS011;54931;52.098;21.006;2023-06-26T07:20:06;6.60;;;4.20;;
68126;SDS011;54931;52.098;21.006;2023-06-26T07:22:36;7.00;;;4.60;;
68126;SDS011;54931;52.098;21.006;2023-06-26T07:25:04;8.10;;;4.50;;
68126;SDS011;54931;52.098;21.006;2023-06-26T07:27:38;9.00;;;4.60;;
68126;SDS011;54931;52.098;21.006;2023-06-26T07:30:07;7.60;;;4.70;;
68126;SDS011;54931;52.098;21.006;2023-06-26T07:32:38;9.90;;;4.90;;
68126;SDS011;54931;52.098;21.006;2023-06-26T07:35:09;6.50;;;4.90;;
68126;SDS011;54931;52.098;21.006;2023-06-26T07:37:37;6.20;;;4.50;;
68126;SDS011;54931;52.098;21.006;2023-06-26T07:40:05;7.70;;;4.90;;
68126;SDS011;54931;52.098;21.006;2023-06-26T07:42:34;6.40;;;4.60;;
68126;SDS011;54931;52.098;21.006;2023-06-26T07:45:03;5.90;;;4.60;;
68126;SDS011;54931;52.098;21.006;2023-06-26T07:47:37;6.70;;;4.80;;
68126;SDS011;54931;52.098;21.006;2023-06-26T07:50:07;6.10;;;4.50;;
68126;SDS011;54931;52.098;21.006;2023-06-26T07:52:35;6.30;;;4.50;;
68126;SDS011;54931;52.098;21.006;2023-06-26T07:55:03;6.60;;;4.10;;
68126;SDS011;54931;52.098;21.006;2023-06-26T07:57:31;4.60;;;4.10;;
68126;SDS011;54931;52.098;21.006;2023-06-26T07:59:59;5.40;;;4.10;;
68126;SDS011;54931;52.098;21.006;2023-06-26T08:02:27;7.30;;;4.40;;
68126;SDS011;54931;52.098;21.006;2023-06-26T08:04:54;7.10;;;4.20;;
68126;SDS011;54931;52.098;21.006;2023-06-26T08:07:22;8.10;;;4.80;;
68126;SDS011;54931;52.098;21.006;2023-06-26T08:09:50;7.40;;;4.40;;
68126;SDS011;54931;52.098;21.006;2023-06-26T08:12:17;7.40;;;4.50;;
68126;SDS011;54931;52.098;21.006;2023-06-26T08:14:45;8.40;;;4.30;;
68126;SDS011;54931;52.098;21.006;2023-06-26T08:17:13;4.70;;;3.90;;
68126;SDS011;54931;52.098;21.006;2023-06-26T08:19:40;8.60;;;4.40;;
68126;SDS011;54931;52.098;21.006;2023-06-26T08:22:08;7.60;;;4.60;;
68126;SDS011;54931;52.098;21.006;2023-06-26T08:24:35;6.00;;;4.70;;
68126;SDS011;54931;52.098;21.006;2023-06-26T08:27:04;8.20;;;4.40;;
68126;SDS011;54931;52.098;21.006;2023-06-26T08:29:33;8.70;;;4.80;;
68126;SDS011;54931;52.098;21.006;2023-06-26T08:32:00;6.20;;;4.10;;
68126;SDS011;54931;52.098;21.006;2023-06-26T08:34:29;6.30;;;3.90;;
68126;SDS011;54931;52.098;21.006;2023-06-26T08:36:56;5.50;;;3.70;;
68126;SDS011;54931;52.098;21.006;2023-06-26T08:39:24;5.20;;;3.30;;
68126;SDS011;54931;52.098;21.006;2023-06-26T08:41:52;8.80;;;3.70;;
68126;SDS011;54931;52.098;21.006;2023-06-26T08:44:21;7.00;;;3.60;;
68126;SDS011;54931;52.098;21.006;2023-06-26T08:46:51;4.80;;;3.50;;
68126;SDS011;54931;52.098;21.006;2023-06-26T08:52:31;4.50;;;3.30;;
68126;SDS011;54931;52.098;21.006;2023-06-26T08:55:08;5.60;;;3.20;;
68126;SDS011;54931;52.098;21.006;2023-06-26T08:57:38;6.20;;;3.70;;
68126;SDS011;54931;52.098;21.006;2023-06-26T09:00:06;4.10;;;3.30;;
68126;SDS011;54931;52.098;21.006;2023-06-26T09:02:36;5.20;;;3.80;;
68126;SDS011;54931;52.098;21.006;2023-06-26T09:05:06;5.20;;;3.60;;
68126;SDS011;54931;52.098;21.006;2023-06-26T09:07:34;3.90;;;3.40;;
68126;SDS011;54931;52.098;21.006;2023-06-26T09:10:02;4.70;;;3.40;;
68126;SDS011;54931;52.098;21.006;2023-06-26T09:12:31;5.00;;;3.40;;
68126;SDS011;54931;52.098;21.006;2023-06-26T09:15:00;4.30;;;3.40;;
68126;SDS011;54931;52.098;21.006;2023-06-26T09:17:39;4.70;;;3.70;;
68126;SDS011;54931;52.098;21.006;2023-06-26T09:20:10;9.00;;;3.90;;
68126;SDS011;54931;52.098;21.006;2023-06-26T09:22:40;5.00;;;4.00;;
68126;SDS011;54931;52.098;21.006;2023-06-26T09:25:09;5.00;;;3.70;;
68126;SDS011;54931;52.098;21.006;2023-06-26T09:27:38;5.30;;;3.80;;
68126;SDS011;54931;52.098;21.006;2023-06-26T09:30:07;6.00;;;3.70;;
68126;SDS011;54931;52.098;21.006;2023-06-26T09:32:35;5.90;;;3.70;;
68126;SDS011;54931;52.098;21.006;2023-06-26T09:35:05;6.20;;;3.60;;
68126;SDS011;54931;52.098;21.006;2023-06-26T09:37:32;4.90;;;3.60;;
68126;SDS011;54931;52.098;21.006;2023-06-26T09:40:02;6.10;;;3.30;;
68126;SDS011;54931;52.098;21.006;2023-06-26T09:42:31;4.30;;;3.10;;
68126;SDS011;54931;52.098;21.006;2023-06-26T09:45:00;3.90;;;3.10;;
68126;SDS011;54931;52.098;21.006;2023-06-26T09:47:30;4.50;;;3.40;;
68126;SDS011;54931;52.098;21.006;2023-06-26T09:50:04;5.80;;;3.30;;
68126;SDS011;54931;52.098;21.006;2023-06-26T09:52:35;5.10;;;3.70;;
68126;SDS011;54931;52.098;21.006;2023-06-26T09:55:09;4.90;;;3.80;;
68126;SDS011;54931;52.098;21.006;2023-06-26T09:57:38;6.10;;;4.00;;
68126;SDS011;54931;52.098;21.006;2023-06-26T10:00:07;4.10;;;3.40;;
68126;SDS011;54931;52.098;21.006;2023-06-26T10:02:36;4.50;;;3.60;;
68126;SDS011;54931;52.098;21.006;2023-06-26T10:05:05;4.00;;;3.30;;
68126;SDS011;54931;52.098;21.006;2023-06-26T10:07:33;6.10;;;3.50;;
68126;SDS011;54931;52.098;21.006;2023-06-26T10:10:03;4.80;;;3.60;;
68126;SDS011;54931;52.098;21.006;2023-06-26T10:12:34;6.10;;;3.50;;
68126;SDS011;54931;52.098;21.006;2023-06-26T10:15:03;4.90;;;3.80;;
68126;SDS011;54931;52.098;21.006;2023-06-26T10:17:34;5.30;;;3.50;;
68126;SDS011;54931;52.098;21.006;2023-06-26T10:20:06;6.10;;;3.80;;
68126;SDS011;54931;52.098;21.006;2023-06-26T10:22:44;5.20;;;3.60;;
68126;SDS011;54931;52.098;21.006;2023-06-26T10:25:18;5.90;;;3.60;;
68126;SDS011;54931;52.098;21.006;2023-06-26T10:27:53;5.40;;;3.60;;
68126;SDS011;54931;52.098;21.006;2023-06-26T10:30:29;6.30;;;3.60;;
68126;SDS011;54931;52.098;21.006;2023-06-26T10:33:02;7.40;;;3.40;;
68126;SDS011;54931;52.098;21.006;2023-06-26T10:35:30;4.50;;;3.80;;
68126;SDS011;54931;52.098;21.006;2023-06-26T10:38:03;4.60;;;3.50;;
68126;SDS011;54931;52.098;21.006;2023-06-26T10:40:42;5.40;;;3.80;;
68126;SDS011;54931;52.098;21.006;2023-06-26T10:43:16;6.00;;;3.50;;
68126;SDS011;54931;52.098;21.006;2023-06-26T10:45:48;8.00;;;4.00;;
68126;SDS011;54931;52.098;21.006;2023-06-26T10:48:22;4.70;;;3.50;;
68126;SDS011;54931;52.098;21.006;2023-06-26T10:51:14;7.60;;;3.50;;
68126;SDS011;54931;52.098;21.006;2023-06-26T10:53:42;5.70;;;3.60;;
68126;SDS011;54931;52.098;21.006;2023-06-26T10:56:18;5.10;;;4.00;;
68126;SDS011;54931;52.098;21.006;2023-06-26T10:58:47;4.50;;;3.80;;
68126;SDS011;54931;52.098;21.006;2023-06-26T11:04:04;4.80;;;3.40;;
68126;SDS011;54931;52.098;21.006;2023-06-26T11:06:38;7.70;;;3.80;;
68126;SDS011;54931;52.098;21.006;2023-06-26T11:09:10;4.10;;;3.30;;
68126;SDS011;54931;52.098;21.006;2023-06-26T11:14:27;4.70;;;3.50;;
68126;SDS011;54931;52.098;21.006;2023-06-26T11:16:55;7.50;;;3.90;;
68126;SDS011;54931;52.098;21.006;2023-06-26T11:19:26;6.90;;;4.00;;
68126;SDS011;54931;52.098;21.006;2023-06-26T11:22:01;5.40;;;3.70;;
68126;SDS011;54931;52.098;21.006;2023-06-26T11:24:32;5.80;;;3.80;;
68126;SDS011;54931;52.098;21.006;2023-06-26T11:27:01;7.30;;;3.60;;
68126;SDS011;54931;52.098;21.006;2023-06-26T11:29:30;5.70;;;4.00;;
68126;SDS011;54931;52.098;21.006;2023-06-26T11:32:00;4.50;;;3.60;;
68126;SDS011;54931;52.098;21.006;2023-06-26T11:34:30;5.80;;;3.90;;
68126;SDS011;54931;52.098;21.006;2023-06-26T11:36:58;6.10;;;3.80;;
68126;SDS011;54931;52.098;21.006;2023-06-26T11:39:28;4.30;;;3.70;;
68126;SDS011;54931;52.098;21.006;2023-06-26T11:41:56;4.90;;;3.90;;
68126;SDS011;54931;52.098;21.006;2023-06-26T11:44:29;4.90;;;3.40;;
68126;SDS011;54931;52.098;21.006;2023-06-26T11:46:58;4.50;;;3.40;;
68126;SDS011;54931;52.098;21.006;2023-06-26T11:49:28;6.00;;;3.80;;
68126;SDS011;54931;52.098;21.006;2023-06-26T11:51:56;5.90;;;3.60;;
68126;SDS011;54931;52.098;21.006;2023-06-26T11:54:25;9.80;;;3.70;;
68126;SDS011;54931;52.098;21.006;2023-06-26T11:56:56;6.10;;;3.60;;
68126;SDS011;54931;52.098;21.006;2023-06-26T11:59:39;4.70;;;3.60;;
68126;SDS011;54931;52.098;21.006;2023-06-26T12:02:09;4.90;;;3.20;;
68126;SDS011;54931;52.098;21.006;2023-06-26T12:04:38;4.00;;;3.20;;
68126;SDS011;54931;52.098;21.006;2023-06-26T12:07:09;4.70;;;3.40;;
68126;SDS011;54931;52.098;21.006;2023-06-26T12:09:45;6.00;;;3.90;;
68126;SDS011;54931;52.098;21.006;2023-06-26T12:12:16;5.30;;;3.50;;
68126;SDS011;54931;52.098;21.006;2023-06-26T12:14:45;3.60;;;3.20;;
68126;SDS011;54931;52.098;21.006;2023-06-26T12:17:14;7.40;;;3.20;;
68126;SDS011;54931;52.098;21.006;2023-06-26T12:19:46;7.30;;;3.50;;
68126;SDS011;54931;52.098;21.006;2023-06-26T12:22:17;3.90;;;3.00;;
68126;SDS011;54931;52.098;21.006;2023-06-26T12:24:46;5.90;;;3.20;;
68126;SDS011;54931;52.098;21.006;2023-06-26T12:27:17;5.20;;;3.30;;
68126;SDS011;54931;52.098;21.006;2023-06-26T12:29:51;5.30;;;3.40;;
68126;SDS011;54931;52.098;21.006;2023-06-26T12:32:27;4.90;;;3.30;;
68126;SDS011;54931;52.098;21.006;2023-06-26T12:34:57;4.70;;;3.20;;
68126;SDS011;54931;52.098;21.006;2023-06-26T12:37:25;5.50;;;3.30;;
68126;SDS011;54931;52.098;21.006;2023-06-26T12:39:57;5.10;;;3.50;;
68126;SDS011;54931;52.098;21.006;2023-06-26T12:42:26;4.20;;;3.00;;
68126;SDS011;54931;52.098;21.006;2023-06-26T12:44:55;3.90;;;2.70;;
68126;SDS011;54931;52.098;21.006;2023-06-26T12:47:28;5.40;;;3.20;;
68126;SDS011;54931;52.098;21.006;2023-06-26T12:49:58;6.70;;;3.60;;
68126;SDS011;54931;52.098;21.006;2023-06-26T12:52:26;4.80;;;3.10;;
68126;SDS011;54931;52.098;21.006;2023-06-26T12:54:54;5.20;;;3.30;;
68126;SDS011;54931;52.098;21.006;2023-06-26T12:57:23;6.30;;;3.50;;
68126;SDS011;54931;52.098;21.006;2023-06-26T12:59:51;4.90;;;3.30;;
68126;SDS011;54931;52.098;21.006;2023-06-26T13:02:19;6.20;;;3.70;;
68126;SDS011;54931;52.098;21.006;2023-06-26T13:04:47;5.90;;;3.10;;
68126;SDS011;54931;52.098;21.006;2023-06-26T13:07:15;4.90;;;3.40;;
68126;SDS011;54931;52.098;21.006;2023-06-26T13:09:43;4.30;;;3.40;;
68126;SDS011;54931;52.098;21.006;2023-06-26T13:12:11;4.70;;;3.50;;
68126;SDS011;54931;52.098;21.006;2023-06-26T13:14:39;4.70;;;3.40;;
68126;SDS011;54931;52.098;21.006;2023-06-26T13:17:08;5.30;;;3.30;;
68126;SDS011;54931;52.098;21.006;2023-06-26T13:19:36;6.40;;;3.70;;
68126;SDS011;54931;52.098;21.006;2023-06-26T13:22:04;5.10;;;3.40;;
68126;SDS011;54931;52.098;21.006;2023-06-26T13:24:32;5.50;;;3.40;;
68126;SDS011;54931;52.098;21.006;2023-06-26T13:27:00;6.60;;;3.60;;
68126;SDS011;54931;52.098;21.006;2023-06-26T13:29:28;6.10;;;3.80;;
68126;SDS011;54931;52.098;21.006;2023-06-26T13:31:56;6.30;;;3.50;;
68126;SDS011;54931;52.098;21.006;2023-06-26T13:34:24;5.00;;;3.60;;
68126;SDS011;54931;52.098;21.006;2023-06-26T13:36:56;5.50;;;3.90;;
68126;SDS011;54931;52.098;21.006;2023-06-26T13:39:24;6.70;;;3.50;;
68126;SDS011;54931;52.098;21.006;2023-06-26T13:41:52;5.50;;;3.40;;
68126;SDS011;54931;52.098;21.006;2023-06-26T13:44:20;4.90;;;3.60;;
68126;SDS011;54931;52.098;21.006;2023-06-26T13:46:47;5.80;;;3.80;;
68126;SDS011;54931;52.098;21.006;2023-06-26T13:49:15;5.00;;;3.50;;
68126;SDS011;54931;52.098;21.006;2023-06-26T13:51:42;4.70;;;3.60;;
68126;SDS011;54931;52.098;21.006;2023-06-26T13:54:13;4.50;;;3.70;;
68126;SDS011;54931;52.098;21.006;2023-06-26T13:56:41;6.00;;;3.70;;
68126;SDS011;54931;52.098;21.006;2023-06-26T13:59:08;5.40;;;3.70;;
68126;SDS011;54931;52.098;21.006;2023-06-26T14:01:36;7.80;;;4.00;;
68126;SDS011;54931;52.098;21.006;2023-06-26T14:04:04;5.90;;;3.90;;
68126;SDS011;54931;52.098;21.006;2023-06-26T14:06:31;5.10;;;3.40;;
68126;SDS011;54931;52.098;21.006;2023-06-26T14:08:59;4.60;;;3.60;;
68126;SDS011;54931;52.098;21.006;2023-06-26T14:11:27;4.70;;;3.50;;
68126;SDS011;54931;52.098;21.006;2023-06-26T14:13:55;4.30;;;3.40;;
68126;SDS011;54931;52.098;21.006;2023-06-26T14:16:22;5.70;;;3.80;;
68126;SDS011;54931;52.098;21.006;2023-06-26T14:18:53;4.90;;;4.00;;
68126;SDS011;54931;52.098;21.006;2023-06-26T14:21:20;6.40;;;3.70;;
68126;SDS011;54931;52.098;21.006;2023-06-26T14:23:48;8.40;;;3.90;;
68126;SDS011;54931;52.098;21.006;2023-06-26T14:26:16;5.20;;;3.90;;
68126;SDS011;54931;52.098;21.006;2023-06-26T14:28:44;5.40;;;3.90;;
68126;SDS011;54931;52.098;21.006;2023-06-26T14:31:12;7.70;;;3.90;;
68126;SDS011;54931;52.098;21.006;2023-06-26T14:33:40;6.70;;;4.60;;
68126;SDS011;54931;52.098;21.006;2023-06-26T14:36:08;5.60;;;3.90;;
68126;SDS011;54931;52.098;21.006;2023-06-26T14:38:35;5.10;;;3.80;;
68126;SDS011;54931;52.098;21.006;2023-06-26T14:41:03;6.60;;;3.90;;
68126;SDS011;54931;52.098;21.006;2023-06-26T14:43:30;8.50;;;4.10;;
68126;SDS011;54931;52.098;21.006;2023-06-26T14:45:58;6.20;;;4.20;;
68126;SDS011;54931;52.098;21.006;2023-06-26T14:48:25;6.50;;;4.20;;
68126;SDS011;54931;52.098;21.006;2023-06-26T14:50:53;6.90;;;3.80;;
68126;SDS011;54931;52.098;21.006;2023-06-26T14:53:21;7.90;;;3.90;;
68126;SDS011;54931;52.098;21.006;2023-06-26T14:55:49;7.20;;;4.10;;
68126;SDS011;54931;52.098;21.006;2023-06-26T14:58:16;8.00;;;3.80;;
68126;SDS011;54931;52.098;21.006;2023-06-26T15:00:44;5.40;;;3.70;;
68126;SDS011;54931;52.098;21.006;2023-06-26T15:03:12;5.90;;;3.70;;
68126;SDS011;54931;52.098;21.006;2023-06-26T15:05:40;4.50;;;3.70;;